createdAt,value
2018-06-08T00:00:22.405Z,50.00
2018-06-08T00:02:51.662Z,50.00
2018-06-08T00:05:21.077Z,50.10
2018-06-08T00:07:50.447Z,50.30
2018-06-08T00:10:26.462Z,50.40
2018-06-08T00:12:56.023Z,50.50
2018-06-08T00:15:25.403Z,50.70
2018-06-08T00:17:54.959Z,50.90
2018-06-08T00:20:24.224Z,51.10
2018-06-08T00:22:53.841Z,51.20
2018-06-08T00:25:39.703Z,51.50
2018-06-08T00:28:09.701Z,51.60
2018-06-08T00:30:39.068Z,51.70
2018-06-08T00:33:08.786Z,52.00
2018-06-08T00:35:38.043Z,53.00
2018-06-08T00:38:07.545Z,52.40
2018-06-08T00:40:37.004Z,52.50
2018-06-08T00:43:06.688Z,52.70
2018-06-08T00:45:36.057Z,52.90
2018-06-08T00:48:05.603Z,52.90
2018-06-08T00:50:34.939Z,53.10
2018-06-08T00:53:04.685Z,53.20
2018-06-08T00:55:34.274Z,53.20
2018-06-08T00:58:03.723Z,53.60
2018-06-08T01:00:32.958Z,53.50
2018-06-08T01:03:02.325Z,53.70
2018-06-08T01:05:31.671Z,53.80
2018-06-08T01:08:00.918Z,54.00
2018-06-08T01:10:30.213Z,54.10
2018-06-08T01:12:59.739Z,54.10
2018-06-08T01:15:28.996Z,54.30
2018-06-08T01:17:58.481Z,54.40
2018-06-08T01:20:28.026Z,54.60
2018-06-08T01:22:57.626Z,54.70
2018-06-08T01:25:26.930Z,54.80
2018-06-08T01:27:56.468Z,54.80
2018-06-08T01:30:25.834Z,54.90
2018-06-08T01:32:55.141Z,55.10
2018-06-08T01:35:24.445Z,55.20
2018-06-08T01:37:53.757Z,55.30
2018-06-08T01:40:23.021Z,55.30
2018-06-08T01:43:13.325Z,55.40
2018-06-08T01:45:42.538Z,55.50
2018-06-08T01:48:11.823Z,55.60
2018-06-08T01:50:41.931Z,55.70
2018-06-08T01:53:23.749Z,55.80
2018-06-08T01:55:53.808Z,55.90
2018-06-08T01:58:23.163Z,56.00
2018-06-08T02:00:52.440Z,56.10
2018-06-08T02:03:29.993Z,56.20
2018-06-08T02:05:59.369Z,56.80
2018-06-08T02:08:28.777Z,56.30
2018-06-08T02:10:58.169Z,56.30
2018-06-08T02:13:27.674Z,56.40
2018-06-08T02:15:57.093Z,56.50
2018-06-08T02:18:34.280Z,56.60
2018-06-08T02:21:03.705Z,56.60
2018-06-08T02:23:33.101Z,57.30
2018-06-08T02:26:02.467Z,56.70
2018-06-08T02:28:31.813Z,56.70
2018-06-08T02:31:03.243Z,56.80
2018-06-08T02:33:32.930Z,56.80
2018-06-08T02:36:02.183Z,56.90
2018-06-08T02:38:31.788Z,56.90
2018-06-08T02:41:01.244Z,57.40
2018-06-08T02:43:30.629Z,57.00
2018-06-08T02:46:00.027Z,57.10
2018-06-08T02:48:29.339Z,57.10
2018-06-08T02:50:58.732Z,57.20
2018-06-08T02:53:28.138Z,57.20
2018-06-08T02:55:57.532Z,57.30
2018-06-08T02:58:26.975Z,57.30
2018-06-08T03:00:56.415Z,57.40
2018-06-08T03:03:29.298Z,57.40
2018-06-08T03:05:58.597Z,57.50
2018-06-08T03:08:27.919Z,57.60
2018-06-08T03:10:57.249Z,57.60
2018-06-08T03:13:26.549Z,57.70
2018-06-08T03:15:55.830Z,57.70
2018-06-08T03:18:25.289Z,57.80
2018-06-08T03:20:54.742Z,57.90
2018-06-08T03:23:24.140Z,58.10
2018-06-08T03:26:09.964Z,58.10
2018-06-08T03:28:39.373Z,58.20
2018-06-08T03:31:09.623Z,58.20
2018-06-08T03:33:38.822Z,58.20
2018-06-08T03:36:08.073Z,58.30
2018-06-08T03:38:37.334Z,58.40
2018-06-08T03:41:06.932Z,58.50
2018-06-08T03:43:36.342Z,58.60
2018-06-08T03:46:05.921Z,58.60
2018-06-08T03:48:35.205Z,58.70
2018-06-08T03:51:04.614Z,58.70
2018-06-08T03:53:34.082Z,58.90
2018-06-08T03:56:03.492Z,59.10
2018-06-08T03:58:33.050Z,59.20
2018-06-08T04:01:02.518Z,59.20
2018-06-08T04:03:32.106Z,59.10
2018-06-08T04:06:01.547Z,59.10
2018-06-08T04:08:31.123Z,59.40
2018-06-08T04:11:00.577Z,59.50
2018-06-08T04:13:31.250Z,59.40
2018-06-08T04:16:00.785Z,59.30
2018-06-08T04:18:32.201Z,59.40
2018-06-08T04:21:01.694Z,59.20
2018-06-08T04:23:31.125Z,59.30
2018-06-08T04:26:00.432Z,59.20
2018-06-08T04:28:29.792Z,59.20
2018-06-08T04:30:59.386Z,59.30
2018-06-08T04:33:29.849Z,59.20
2018-06-08T04:35:59.572Z,59.10
2018-06-08T04:38:42.218Z,59.10
2018-06-08T04:41:11.643Z,59.00
2018-06-08T04:43:52.431Z,59.00
2018-06-08T04:46:22.077Z,58.90
2018-06-08T04:48:51.405Z,58.90
2018-06-08T04:51:26.733Z,58.90
2018-06-08T04:53:56.123Z,58.80
2018-06-08T04:56:26.193Z,58.80
2018-06-08T04:58:55.445Z,58.80
2018-06-08T05:01:26.390Z,58.80
2018-06-08T05:03:55.748Z,58.80
2018-06-08T05:06:25.747Z,58.80
2018-06-08T05:08:55.026Z,58.90
2018-06-08T05:11:24.303Z,59.40
2018-06-08T05:14:07.868Z,58.80
2018-06-08T05:16:37.576Z,58.60
2018-06-08T05:19:07.062Z,58.60
2018-06-08T05:21:36.705Z,58.60
2018-06-08T05:24:06.233Z,58.60
2018-06-08T05:26:36.910Z,58.60
2018-06-08T05:29:06.596Z,58.20
2018-06-08T05:31:36.095Z,58.20
2018-06-08T05:34:10.301Z,58.00
2018-06-08T05:36:39.829Z,57.70
2018-06-08T05:39:09.508Z,57.70
2018-06-08T05:41:38.907Z,57.70
2018-06-08T05:44:08.669Z,57.50
2018-06-08T05:46:38.165Z,57.40
2018-06-08T05:49:07.794Z,57.30
2018-06-08T05:51:37.443Z,57.20
2018-06-08T05:54:07.728Z,57.10
2018-06-08T05:56:37.306Z,57.00
2018-06-08T05:59:06.857Z,57.00
2018-06-08T06:01:36.354Z,56.90
2018-06-08T06:04:05.774Z,56.80
2018-06-08T06:06:35.225Z,56.90
2018-06-08T06:09:08.078Z,56.90
2018-06-08T06:11:37.570Z,56.70
2018-06-08T06:14:07.158Z,56.60
2018-06-08T06:16:37.086Z,56.80
2018-06-08T06:19:09.042Z,56.90
2018-06-08T06:21:38.649Z,56.80
2018-06-08T06:24:08.246Z,56.70
2018-06-08T06:26:37.661Z,56.50
2018-06-08T06:29:07.113Z,56.40
2018-06-08T06:31:36.586Z,56.40
2018-06-08T06:34:06.118Z,56.30
2018-06-08T06:36:35.563Z,56.20
2018-06-08T06:39:07.583Z,56.10
2018-06-08T06:41:37.029Z,55.90
2018-06-08T06:44:06.389Z,55.80
2018-06-08T06:46:36.003Z,55.70
2018-06-08T06:49:05.621Z,55.60
2018-06-08T06:51:35.274Z,55.50
2018-06-08T06:54:04.741Z,55.50
2018-06-08T06:56:34.173Z,55.50
2018-06-08T06:59:03.754Z,55.50
2018-06-08T07:01:33.121Z,55.70
2018-06-08T07:04:02.621Z,55.60
2018-06-08T07:06:32.499Z,55.50
2018-06-08T07:09:01.974Z,55.50
2018-06-08T07:11:32.909Z,55.30
2018-06-08T07:14:02.319Z,55.10
2018-06-08T07:16:32.178Z,54.80
2018-06-08T07:19:01.586Z,54.50
2018-06-08T07:21:31.395Z,54.10
2018-06-08T07:24:00.905Z,54.20
2018-06-08T07:26:31.497Z,53.90
2018-06-08T07:29:00.945Z,53.80
2018-06-08T07:31:31.539Z,53.60
2018-06-08T07:34:01.213Z,53.40
2018-06-08T07:36:30.702Z,53.10
2018-06-08T07:39:00.592Z,52.80
2018-06-08T07:41:30.137Z,53.20
2018-06-08T07:43:59.880Z,52.50
2018-06-08T07:46:29.286Z,52.40
2018-06-08T07:48:58.545Z,52.20
2018-06-08T07:51:27.852Z,52.00
2018-06-08T07:53:57.303Z,51.90
2018-06-08T07:56:26.572Z,51.60
2018-06-08T07:58:55.971Z,51.00
2018-06-08T08:01:25.650Z,50.90
2018-06-08T08:03:55.019Z,50.90
2018-06-08T08:06:24.378Z,50.70
2018-06-08T08:08:53.704Z,50.50
2018-06-08T08:11:23.029Z,50.40
2018-06-08T08:13:52.260Z,50.20
2018-06-08T08:16:21.937Z,50.10
2018-06-08T08:18:51.341Z,50.10
2018-06-08T08:21:20.735Z,50.00
2018-06-08T08:23:50.263Z,49.40
2018-06-08T08:26:19.754Z,49.10
2018-06-08T08:28:49.109Z,49.20
2018-06-08T08:31:19.200Z,49.10
2018-06-08T08:33:48.463Z,49.20
2018-06-08T08:36:17.857Z,49.20
2018-06-08T08:38:47.668Z,49.80
2018-06-08T08:41:17.250Z,49.10
2018-06-08T08:43:46.622Z,48.70
2018-06-08T08:46:16.107Z,48.80
2018-06-08T08:48:45.373Z,48.80
2018-06-08T08:51:14.808Z,48.50
2018-06-08T08:53:44.202Z,48.40
2018-06-08T08:56:13.874Z,48.20
2018-06-08T08:58:43.286Z,47.90
2018-06-08T09:01:12.933Z,48.00
2018-06-08T09:03:42.405Z,47.90
2018-06-08T09:06:11.888Z,47.30
2018-06-08T09:08:41.843Z,46.60
2018-06-08T09:11:11.476Z,46.10
2018-06-08T09:13:40.756Z,46.00
2018-06-08T09:16:10.933Z,46.10
2018-06-08T09:18:40.308Z,45.80
2018-06-08T09:21:09.641Z,45.20
2018-06-08T09:23:39.280Z,45.00
2018-06-08T09:26:08.710Z,45.00
2018-06-08T09:28:38.018Z,44.80
2018-06-08T09:31:07.457Z,44.00
2018-06-08T09:33:37.452Z,43.60
2018-06-08T09:36:06.838Z,43.60
2018-06-08T09:38:36.207Z,43.70
2018-06-08T09:41:06.171Z,43.40
2018-06-08T09:43:35.497Z,43.10
2018-06-08T09:46:04.858Z,42.60
2018-06-08T09:48:34.301Z,42.30
2018-06-08T09:51:04.092Z,42.20
2018-06-08T09:53:33.484Z,41.70
2018-06-08T09:56:02.823Z,41.30
2018-06-08T09:58:32.442Z,41.40
2018-06-08T10:01:01.797Z,41.30
2018-06-08T10:03:31.329Z,40.80
2018-06-08T10:06:00.783Z,40.60
2018-06-08T10:08:30.272Z,40.10
2018-06-08T10:10:59.957Z,40.10
2018-06-08T10:13:29.659Z,40.30
2018-06-08T10:15:59.225Z,40.30
2018-06-08T10:18:28.760Z,40.20
2018-06-08T10:20:58.418Z,40.00
2018-06-08T10:23:27.837Z,39.90
2018-06-08T10:25:57.342Z,39.80
2018-06-08T10:28:26.825Z,40.00
2018-06-08T10:30:56.140Z,39.80
2018-06-08T10:33:25.595Z,39.30
2018-06-08T10:35:54.923Z,39.40
2018-06-08T10:38:33.150Z,39.40
2018-06-08T10:41:03.350Z,39.20
2018-06-08T10:43:33.757Z,39.10
2018-06-08T10:46:03.167Z,38.70
2018-06-08T10:48:32.574Z,38.70
2018-06-08T10:51:01.964Z,39.00
2018-06-08T10:53:31.375Z,39.00
2018-06-08T10:56:00.710Z,38.80
2018-06-08T10:58:30.203Z,38.90
2018-06-08T11:00:59.577Z,39.20
2018-06-08T11:03:29.191Z,39.30
2018-06-08T11:05:58.602Z,39.50
2018-06-08T11:08:28.097Z,39.20
2018-06-08T11:10:57.500Z,39.10
2018-06-08T11:13:26.988Z,38.90
2018-06-08T11:15:56.368Z,38.50
2018-06-08T11:18:25.857Z,38.00
2018-06-08T11:20:55.183Z,37.60
2018-06-08T11:23:24.593Z,36.80
2018-06-08T11:25:53.921Z,36.50
2018-06-08T11:28:23.328Z,36.50
2018-06-08T11:30:52.934Z,36.60
2018-06-08T11:33:22.282Z,36.00
2018-06-08T11:35:51.675Z,35.00
2018-06-08T11:38:21.027Z,34.20
2018-06-08T11:40:50.462Z,33.80
2018-06-08T11:43:20.103Z,33.90
2018-06-08T11:45:49.504Z,33.90
2018-06-08T11:48:18.796Z,33.20
2018-06-08T11:50:48.132Z,32.60
2018-06-08T11:53:17.546Z,32.30
2018-06-08T11:55:48.086Z,31.90
2018-06-08T11:58:17.452Z,31.40
2018-06-08T12:00:46.967Z,31.40
2018-06-08T12:03:16.499Z,30.90
2018-06-08T12:05:46.164Z,30.80
2018-06-08T12:08:18.544Z,30.70
2018-06-08T12:10:48.047Z,30.80
2018-06-08T12:13:18.197Z,30.00
2018-06-08T12:15:48.596Z,30.00
2018-06-08T12:18:18.054Z,29.80
2018-06-08T12:20:47.741Z,29.60
2018-06-08T12:23:17.477Z,29.60
2018-06-08T12:25:47.244Z,29.40
2018-06-08T12:28:17.062Z,29.30
2018-06-08T12:30:46.912Z,29.00
2018-06-08T12:33:16.215Z,28.90
2018-06-08T12:35:45.634Z,29.20
2018-06-08T12:38:15.159Z,29.00
2018-06-08T12:40:44.856Z,28.40
2018-06-08T12:43:14.795Z,27.90
2018-06-08T12:45:45.165Z,28.20
2018-06-08T12:48:14.616Z,28.00
2018-06-08T12:50:44.065Z,28.10
2018-06-08T12:53:13.688Z,27.90
2018-06-08T12:55:44.259Z,27.50
2018-06-08T12:58:13.609Z,27.20
2018-06-08T13:00:43.118Z,27.30
2018-06-08T13:03:13.797Z,26.70
2018-06-08T13:05:43.422Z,26.60
2018-06-08T13:08:12.754Z,26.40
2018-06-08T13:10:42.295Z,26.30
2018-06-08T13:13:11.670Z,26.40
2018-06-08T13:15:41.186Z,26.70
2018-06-08T13:18:11.115Z,26.60
2018-06-08T13:20:40.806Z,26.90
2018-06-08T13:23:10.245Z,27.10
2018-06-08T13:25:40.354Z,27.20
2018-06-08T13:28:10.010Z,27.40
2018-06-08T13:30:39.543Z,27.60
2018-06-08T13:33:09.224Z,28.00
2018-06-08T13:35:38.619Z,28.10
2018-06-08T13:38:08.028Z,28.00
2018-06-08T13:40:37.420Z,27.80
2018-06-08T13:43:07.942Z,28.20
2018-06-08T13:45:45.460Z,28.40
2018-06-08T13:48:20.519Z,28.80
2018-06-08T13:50:50.279Z,29.30
2018-06-08T13:53:19.617Z,29.70
2018-06-08T13:55:48.977Z,29.80
2018-06-08T13:58:18.418Z,29.60
2018-06-08T14:00:47.702Z,29.20
2018-06-08T14:03:17.214Z,29.20
2018-06-08T14:05:52.598Z,28.60
2018-06-08T14:08:22.038Z,28.10
2018-06-08T14:10:51.632Z,28.30
2018-06-08T14:13:21.184Z,28.40
2018-06-08T14:15:50.457Z,28.90
2018-06-08T14:18:20.169Z,28.90
2018-06-08T14:20:49.512Z,28.70
2018-06-08T14:23:18.997Z,28.70
2018-06-08T14:25:51.508Z,28.90
2018-06-08T14:28:21.286Z,29.00
2018-06-08T14:30:50.729Z,29.20
2018-06-08T14:33:21.108Z,29.70
2018-06-08T14:35:50.436Z,29.90
2018-06-08T14:38:20.928Z,30.50
2018-06-08T14:40:50.363Z,31.10
2018-06-08T14:43:20.130Z,31.40
2018-06-08T14:45:49.389Z,31.60
2018-06-08T14:48:18.878Z,31.70
2018-06-08T14:50:48.191Z,31.90
2018-06-08T14:53:17.929Z,32.10
2018-06-08T14:55:47.309Z,32.00
2018-06-08T14:58:16.822Z,32.10
2018-06-08T15:00:46.705Z,32.10
2018-06-08T15:03:16.095Z,31.30
2018-06-08T15:05:45.650Z,30.70
2018-06-08T15:08:16.880Z,30.00
2018-06-08T15:10:46.677Z,29.70
2018-06-08T15:13:16.340Z,29.30
2018-06-08T15:15:50.648Z,28.80
2018-06-08T15:18:20.308Z,29.00
2018-06-08T15:20:50.000Z,28.90
2018-06-08T15:23:19.537Z,28.90
2018-06-08T15:25:48.930Z,28.70
2018-06-08T15:28:19.519Z,28.60
2018-06-08T15:30:49.858Z,28.20
2018-06-08T15:33:19.466Z,28.20
2018-06-08T15:35:50.311Z,28.20
2018-06-08T15:38:20.413Z,28.10
2018-06-08T15:40:50.657Z,28.10
2018-06-08T15:43:20.465Z,28.30
2018-06-08T15:45:50.035Z,28.50
2018-06-08T15:48:21.436Z,28.60
2018-06-08T15:50:51.766Z,28.80
2018-06-08T15:53:21.687Z,29.00
2018-06-08T15:55:52.114Z,29.20
2018-06-08T15:58:21.719Z,29.50
2018-06-08T16:00:54.987Z,30.00
2018-06-08T16:03:26.218Z,30.10
2018-06-08T16:06:13.626Z,30.90
2018-06-08T16:08:46.225Z,30.90
2018-06-08T16:11:16.121Z,31.00
2018-06-08T16:13:45.607Z,31.50
2018-06-08T16:16:15.103Z,31.80
2018-06-08T16:18:45.619Z,32.00
2018-06-08T16:21:15.492Z,32.20
2018-06-08T16:23:45.058Z,32.70
2018-06-08T16:26:14.963Z,32.80
2018-06-08T16:28:44.481Z,32.90
2018-06-08T16:31:15.263Z,32.80
2018-06-08T16:33:46.124Z,32.80
2018-06-08T16:36:19.388Z,32.80
2018-06-08T16:38:55.519Z,33.10
2018-06-08T16:41:25.142Z,33.00
2018-06-08T16:43:55.026Z,32.90
2018-06-08T16:46:25.563Z,32.90
2018-06-08T16:48:55.342Z,33.10
2018-06-08T16:51:24.834Z,33.30
2018-06-08T16:53:56.564Z,33.50
2018-06-08T16:56:26.100Z,33.60
2018-06-08T16:58:55.640Z,33.70
2018-06-08T17:01:25.173Z,34.00
2018-06-08T17:03:54.473Z,34.10
2018-06-08T17:06:24.374Z,34.40
2018-06-08T17:08:54.747Z,34.60
2018-06-08T17:11:24.256Z,34.50
2018-06-08T17:13:53.775Z,34.50
2018-06-08T17:16:23.449Z,34.60
2018-06-08T17:18:53.047Z,35.00
2018-06-08T17:21:23.580Z,35.20
2018-06-08T17:23:52.989Z,35.30
2018-06-08T17:26:23.395Z,35.70
2018-06-08T17:28:53.199Z,35.70
2018-06-08T17:31:35.486Z,35.90
2018-06-08T17:34:10.951Z,36.40
2018-06-08T17:36:40.696Z,36.20
2018-06-08T17:39:10.157Z,36.00
2018-06-08T17:41:39.791Z,36.20
2018-06-08T17:44:09.701Z,36.20
2018-06-08T17:46:40.680Z,36.40
2018-06-08T17:49:14.885Z,36.50
2018-06-08T17:51:44.748Z,36.80
2018-06-08T17:54:18.386Z,37.00
2018-06-08T17:56:48.298Z,37.20
2018-06-08T17:59:18.974Z,37.20
2018-06-08T18:01:49.566Z,37.10
2018-06-08T18:04:19.135Z,37.50
2018-06-08T18:06:49.382Z,37.70
2018-06-08T18:09:20.327Z,37.90
2018-06-08T18:11:49.770Z,38.30
2018-06-08T18:14:22.280Z,38.40
2018-06-08T18:16:56.545Z,38.90
2018-06-08T18:19:28.021Z,38.70
2018-06-08T18:21:58.797Z,39.00
2018-06-08T18:24:28.444Z,39.30
2018-06-08T18:26:59.220Z,39.60
2018-06-08T18:29:29.147Z,39.70
2018-06-08T18:31:59.125Z,40.00
2018-06-08T18:34:29.133Z,40.10
2018-06-08T18:36:58.990Z,40.20
2018-06-08T18:39:28.947Z,40.40
2018-06-08T18:41:59.075Z,40.40
2018-06-08T18:44:32.830Z,40.60
2018-06-08T18:47:02.798Z,40.70
2018-06-08T18:49:32.891Z,41.00
2018-06-08T18:52:07.495Z,41.80
2018-06-08T18:54:37.731Z,42.40
2018-06-08T18:57:07.693Z,42.90
2018-06-08T18:59:37.287Z,43.60
2018-06-08T19:02:07.769Z,44.00
2018-06-08T19:04:39.263Z,44.40
2018-06-08T19:07:09.652Z,44.90
2018-06-08T19:09:40.863Z,45.30
2018-06-08T19:12:11.798Z,45.40
2018-06-08T19:14:41.359Z,45.60
2018-06-08T19:17:12.743Z,45.90
2018-06-08T19:19:42.432Z,45.90
2018-06-08T19:22:15.849Z,46.00
2018-06-08T19:24:46.564Z,45.80
2018-06-08T19:27:16.486Z,46.20
2018-06-08T19:29:46.088Z,46.20
2018-06-08T19:32:15.809Z,46.10
2018-06-08T19:34:45.776Z,46.20
2018-06-08T19:37:16.005Z,46.30
2018-06-08T19:39:45.756Z,46.20
2018-06-08T19:42:15.302Z,46.30
2018-06-08T19:44:45.170Z,46.30
2018-06-08T19:47:14.880Z,46.50
2018-06-08T19:49:44.380Z,46.60
2018-06-08T19:52:14.019Z,46.70
2018-06-08T19:54:43.787Z,46.70
2018-06-08T19:57:13.773Z,46.70
2018-06-08T19:59:46.343Z,47.00
2018-06-08T20:02:17.426Z,47.10
2018-06-08T20:04:49.322Z,47.70
2018-06-08T20:07:19.591Z,48.00
2018-06-08T20:09:49.277Z,48.50
2018-06-08T20:12:19.045Z,48.80
2018-06-08T20:14:49.171Z,49.30
2018-06-08T20:17:22.782Z,49.60
2018-06-08T20:19:54.278Z,50.00
2018-06-08T20:22:35.280Z,51.10
2018-06-08T20:25:05.735Z,51.90
2018-06-08T20:27:36.345Z,52.00
2018-06-08T20:30:06.339Z,52.30
2018-06-08T20:32:36.275Z,53.20
2018-06-08T20:35:07.018Z,53.80
2018-06-08T20:37:42.159Z,54.00
2018-06-08T20:40:13.521Z,54.50
2018-06-08T20:42:44.398Z,54.90
2018-06-08T20:45:14.842Z,55.20
2018-06-08T20:47:45.235Z,55.60
2018-06-08T20:50:15.082Z,55.90
2018-06-08T20:52:44.760Z,56.30
2018-06-08T20:55:17.790Z,56.50
2018-06-08T20:57:59.590Z,57.00
2018-06-08T21:00:29.505Z,57.10
2018-06-08T21:02:59.092Z,57.90
2018-06-08T21:05:28.602Z,58.00
2018-06-08T21:07:59.762Z,58.80
2018-06-08T21:10:29.587Z,58.50
2018-06-08T21:13:03.290Z,58.70
2018-06-08T21:15:32.884Z,58.80
2018-06-08T21:18:02.155Z,59.20
2018-06-08T21:20:31.443Z,59.40
2018-06-08T21:23:01.178Z,59.60
2018-06-08T21:25:31.018Z,59.80
2018-06-08T21:28:01.224Z,60.10
2018-06-08T21:30:30.625Z,60.20
2018-06-08T21:33:00.062Z,60.50
2018-06-08T21:35:29.916Z,60.70
2018-06-08T21:38:01.516Z,61.10
2018-06-08T21:40:31.245Z,61.10
2018-06-08T21:43:01.499Z,61.30
2018-06-08T21:45:31.074Z,61.60
2018-06-08T21:48:00.529Z,61.70
2018-06-08T21:50:29.984Z,61.80
2018-06-08T21:52:59.438Z,61.90
2018-06-08T21:55:28.792Z,62.10
2018-06-08T21:57:58.348Z,62.20
2018-06-08T22:00:27.979Z,62.30
2018-06-08T22:02:59.378Z,62.30
2018-06-08T22:05:28.757Z,62.50
2018-06-08T22:07:58.202Z,62.70
2018-06-08T22:10:28.718Z,62.80
2018-06-08T22:12:58.064Z,63.00
2018-06-08T22:15:27.688Z,63.40
2018-06-08T22:17:57.474Z,63.50
2018-06-08T22:20:27.516Z,63.70
2018-06-08T22:22:57.050Z,63.80
2018-06-08T22:25:26.547Z,64.00
2018-06-08T22:27:56.315Z,64.10
2018-06-08T22:30:26.771Z,64.20
2018-06-08T22:32:56.635Z,64.10
2018-06-08T22:35:26.455Z,64.30
2018-06-08T22:37:56.121Z,64.40
2018-06-08T22:40:25.722Z,64.50
2018-06-08T22:42:55.416Z,64.60
2018-06-08T22:45:25.036Z,64.60
2018-06-08T22:47:56.732Z,64.70
2018-06-08T22:50:26.070Z,64.70
2018-06-08T22:52:55.491Z,64.90
2018-06-08T22:55:24.888Z,65.00
2018-06-08T22:57:54.540Z,65.10
2018-06-08T23:00:23.973Z,65.10
2018-06-08T23:02:53.368Z,65.30
2018-06-08T23:05:22.920Z,65.30
2018-06-08T23:07:52.374Z,65.70
2018-06-08T23:10:21.669Z,65.50
2018-06-08T23:12:51.127Z,65.70
2018-06-08T23:15:21.509Z,65.90
2018-06-08T23:17:50.808Z,66.10
2018-06-08T23:20:20.782Z,66.20
2018-06-08T23:22:50.293Z,66.50
2018-06-08T23:25:19.875Z,66.50
2018-06-08T23:27:49.542Z,66.50
2018-06-08T23:30:18.932Z,66.50
2018-06-08T23:32:48.473Z,66.40
2018-06-08T23:35:21.878Z,66.30
2018-06-08T23:37:51.257Z,66.20
2018-06-08T23:40:20.678Z,66.30
2018-06-08T23:42:50.165Z,66.40
2018-06-08T23:45:21.366Z,66.40
2018-06-08T23:47:50.778Z,66.50
2018-06-08T23:50:21.097Z,66.70
2018-06-08T23:52:50.640Z,66.90
2018-06-08T23:55:20.098Z,66.80
2018-06-08T23:57:49.501Z,67.00
